Terminal Aerodrome Forecast
Issued by NWS

Home | Current Version | Previous Version | Text Only | Print | Product List | Glossary Off
Versions: 1 2 3 4 5 6 7 8 9 10 11 12 13 14 15 16 17 18

914
FTUS43 KGRB 261135
TAFMTW
TAF
KMTW 261135Z 2612/2712 00000KT 1SM BR SCT060 SCT090
      TEMPO 2612/2613 1/4SM -SHRA FG BKN002
     FM261300 00000KT P6SM BKN090 BKN120
      TEMPO 2613/2615 3SM BR
     FM261700 14006KT P6SM BKN090
     FM262200 17006KT P6SM VCSH BKN050 BKN080
     FM270600 VRB02KT P6SM SCT080=

USA.gov is the U.S. government's official web portal to all federal, state and local government web resources and services.